sensor_id;sensor_type;location;lat;lon;timestamp;pressure;altitude;pressure_sealevel;temperature;humidity
10940;BME280;5522;42.696;23.494;2023-03-14T00:01:26;53628.66;;;-139.68;73.45
10940;BME280;5522;42.696;23.494;2023-03-14T00:03:53;53660.81;;;-139.68;74.86
10940;BME280;5522;42.696;23.494;2023-03-14T00:06:20;53654.78;;;-139.68;75.06
10940;BME280;5522;42.696;23.494;2023-03-14T00:08:47;53697.00;;;-139.68;75.31
10940;BME280;5522;42.696;23.494;2023-03-14T00:11:16;53672.88;;;-139.68;76.67
10940;BME280;5522;42.696;23.494;2023-03-14T00:13:46;53656.81;;;-139.68;76.84
10940;BME280;5522;42.696;23.494;2023-03-14T00:16:17;53646.75;;;-139.68;76.40
10940;BME280;5522;42.696;23.494;2023-03-14T00:18:45;53642.72;;;-139.68;78.15
10940;BME280;5522;42.696;23.494;2023-03-14T00:21:12;53646.75;;;-139.68;77.63
10940;BME280;5522;42.696;23.494;2023-03-14T00:23:40;53662.84;;;-139.68;78.15
10940;BME280;5522;42.696;23.494;2023-03-14T00:26:09;53638.72;;;-139.68;77.65
10940;BME280;5522;42.696;23.494;2023-03-14T00:28:37;53690.97;;;-139.68;76.85
10940;BME280;5522;42.696;23.494;2023-03-14T00:31:04;53622.63;;;-139.68;78.14
10940;BME280;5522;42.696;23.494;2023-03-14T00:33:31;53652.78;;;-139.68;76.98
10940;BME280;5522;42.696;23.494;2023-03-14T00:36:02;53632.69;;;-139.68;76.04
10940;BME280;5522;42.696;23.494;2023-03-14T00:38:30;53666.84;;;-139.68;74.71
10940;BME280;5522;42.696;23.494;2023-03-14T00:40:57;53668.88;;;-139.68;75.55
10940;BME280;5522;42.696;23.494;2023-03-14T00:43:24;53610.56;;;-139.68;74.92
10940;BME280;5522;42.696;23.494;2023-03-14T00:45:51;53624.63;;;-139.68;73.87
10940;BME280;5522;42.696;23.494;2023-03-14T00:48:19;53622.63;;;-139.68;74.42
10940;BME280;5522;42.696;23.494;2023-03-14T00:50:46;53656.81;;;-139.68;75.90
10940;BME280;5522;42.696;23.494;2023-03-14T00:53:15;53646.75;;;-139.68;76.97
10940;BME280;5522;42.696;23.494;2023-03-14T00:55:43;53646.75;;;-139.68;77.76
10940;BME280;5522;42.696;23.494;2023-03-14T00:58:10;53626.66;;;-139.68;79.32
10940;BME280;5522;42.696;23.494;2023-03-14T01:05:48;53632.69;;;-139.68;79.82
10940;BME280;5522;42.696;23.494;2023-03-14T01:08:17;53628.66;;;-139.68;79.77
10940;BME280;5522;42.696;23.494;2023-03-14T01:10:43;53686.97;;;-139.68;79.72
10940;BME280;5522;42.696;23.494;2023-03-14T01:13:10;53618.63;;;-139.68;79.88
10940;BME280;5522;42.696;23.494;2023-03-14T01:15:37;53688.97;;;-139.68;80.26
10940;BME280;5522;42.696;23.494;2023-03-14T01:18:04;53642.72;;;-139.68;81.42
10940;BME280;5522;42.696;23.494;2023-03-14T01:23:01;53608.56;;;-139.68;83.31
10940;BME280;5522;42.696;23.494;2023-03-14T01:25:29;53642.72;;;-139.68;83.75
10940;BME280;5522;42.696;23.494;2023-03-14T01:27:56;53646.75;;;-139.68;84.51
10940;BME280;5522;42.696;23.494;2023-03-14T01:30:23;53606.56;;;-139.68;84.38
10940;BME280;5522;42.696;23.494;2023-03-14T01:32:50;53660.81;;;-139.68;85.33
10940;BME280;5522;42.696;23.494;2023-03-14T01:35:17;53640.72;;;-139.68;85.28
10940;BME280;5522;42.696;23.494;2023-03-14T01:37:44;53654.78;;;-139.68;86.20
10940;BME280;5522;42.696;23.494;2023-03-14T01:40:11;53666.84;;;-139.68;85.47
10940;BME280;5522;42.696;23.494;2023-03-14T01:42:46;53624.63;;;-139.68;85.11
10940;BME280;5522;42.696;23.494;2023-03-14T01:48:18;53614.59;;;-139.68;84.85
10940;BME280;5522;42.696;23.494;2023-03-14T01:50:45;53600.53;;;-139.68;85.50
10940;BME280;5522;42.696;23.494;2023-03-14T01:53:13;53614.59;;;-139.68;85.90
10940;BME280;5522;42.696;23.494;2023-03-14T01:55:40;53644.75;;;-139.68;86.51
10940;BME280;5522;42.696;23.494;2023-03-14T01:58:09;53630.66;;;-139.68;89.27
10940;BME280;5522;42.696;23.494;2023-03-14T02:00:36;53622.63;;;-139.68;92.20
10940;BME280;5522;42.696;23.494;2023-03-14T02:03:07;53578.41;;;-139.68;93.57
10940;BME280;5522;42.696;23.494;2023-03-14T02:05:38;53693.00;;;-139.68;94.82
10940;BME280;5522;42.696;23.494;2023-03-14T02:08:10;53620.63;;;-139.68;96.14
10940;BME280;5522;42.696;23.494;2023-03-14T02:10:41;53602.53;;;-139.68;97.23
10940;BME280;5522;42.696;23.494;2023-03-14T02:13:11;53646.75;;;-139.68;98.30
10940;BME280;5522;42.696;23.494;2023-03-14T02:15:39;53602.53;;;-139.68;98.98
10940;BME280;5522;42.696;23.494;2023-03-14T02:18:08;53640.72;;;-139.68;99.96
10940;BME280;5522;42.696;23.494;2023-03-14T02:20:40;53648.75;;;-139.68;100.00
10940;BME280;5522;42.696;23.494;2023-03-14T02:23:11;53628.66;;;-139.68;100.00
10940;BME280;5522;42.696;23.494;2023-03-14T02:25:43;53642.72;;;-139.68;100.00
10940;BME280;5522;42.696;23.494;2023-03-14T02:28:14;53606.56;;;-139.68;100.00
10940;BME280;5522;42.696;23.494;2023-03-14T02:30:42;53620.63;;;-139.68;100.00
10940;BME280;5522;42.696;23.494;2023-03-14T02:33:12;53606.56;;;-139.68;100.00
10940;BME280;5522;42.696;23.494;2023-03-14T02:35:42;53622.63;;;-139.68;100.00
10940;BME280;5522;42.696;23.494;2023-03-14T02:38:15;53586.44;;;-139.68;100.00
10940;BME280;5522;42.696;23.494;2023-03-14T02:40:43;53598.50;;;-139.68;100.00
10940;BME280;5522;42.696;23.494;2023-03-14T02:43:10;53606.56;;;-139.68;100.00
10940;BME280;5522;42.696;23.494;2023-03-14T02:45:48;53628.66;;;-139.68;100.00
10940;BME280;5522;42.696;23.494;2023-03-14T02:48:18;53616.59;;;-139.68;100.00
10940;BME280;5522;42.696;23.494;2023-03-14T02:50:46;53618.63;;;-139.68;100.00
10940;BME280;5522;42.696;23.494;2023-03-14T02:53:17;53666.84;;;-139.68;100.00
10940;BME280;5522;42.696;23.494;2023-03-14T02:55:45;53578.41;;;-139.68;100.00
10940;BME280;5522;42.696;23.494;2023-03-14T02:58:12;53614.59;;;-139.68;100.00
10940;BME280;5522;42.696;23.494;2023-03-14T03:00:39;53622.63;;;-139.68;100.00
10940;BME280;5522;42.696;23.494;2023-03-14T03:03:08;53622.63;;;-139.68;100.00
10940;BME280;5522;42.696;23.494;2023-03-14T03:05:35;53630.66;;;-139.68;100.00
10940;BME280;5522;42.696;23.494;2023-03-14T03:08:02;53582.44;;;-139.68;100.00
10940;BME280;5522;42.696;23.494;2023-03-14T03:10:29;53574.38;;;-139.68;100.00
10940;BME280;5522;42.696;23.494;2023-03-14T03:12:56;53598.50;;;-139.68;100.00
10940;BME280;5522;42.696;23.494;2023-03-14T03:15:23;53642.72;;;-139.68;100.00
10940;BME280;5522;42.696;23.494;2023-03-14T03:17:50;53598.50;;;-139.68;100.00
10940;BME280;5522;42.696;23.494;2023-03-14T03:20:18;53610.56;;;-139.68;100.00
10940;BME280;5522;42.696;23.494;2023-03-14T03:22:45;53628.66;;;-139.68;100.00
10940;BME280;5522;42.696;23.494;2023-03-14T03:25:12;53608.56;;;-139.68;100.00
10940;BME280;5522;42.696;23.494;2023-03-14T03:27:39;53628.66;;;-139.68;100.00
10940;BME280;5522;42.696;23.494;2023-03-14T03:30:07;53582.44;;;-139.68;100.00
10940;BME280;5522;42.696;23.494;2023-03-14T03:32:35;53582.44;;;-139.68;100.00
10940;BME280;5522;42.696;23.494;2023-03-14T03:35:02;53520.13;;;-139.68;100.00
10940;BME280;5522;42.696;23.494;2023-03-14T03:37:32;53610.56;;;-139.68;100.00
10940;BME280;5522;42.696;23.494;2023-03-14T03:39:59;53600.53;;;-139.68;100.00
10940;BME280;5522;42.696;23.494;2023-03-14T03:42:28;53582.44;;;-139.68;100.00
10940;BME280;5522;42.696;23.494;2023-03-14T03:44:55;53576.41;;;-139.68;100.00
10940;BME280;5522;42.696;23.494;2023-03-14T03:47:22;53618.63;;;-139.68;100.00
10940;BME280;5522;42.696;23.494;2023-03-14T03:49:49;53544.22;;;-139.68;100.00
10940;BME280;5522;42.696;23.494;2023-03-14T03:52:16;53610.56;;;-139.68;100.00
10940;BME280;5522;42.696;23.494;2023-03-14T03:54:44;53648.75;;;-139.68;100.00
10940;BME280;5522;42.696;23.494;2023-03-14T03:57:11;53634.69;;;-139.68;100.00
10940;BME280;5522;42.696;23.494;2023-03-14T03:59:37;53576.41;;;-139.68;100.00
10940;BME280;5522;42.696;23.494;2023-03-14T04:02:06;53602.53;;;-139.68;100.00
10940;BME280;5522;42.696;23.494;2023-03-14T04:04:33;53620.63;;;-139.68;100.00
10940;BME280;5522;42.696;23.494;2023-03-14T04:07:00;53598.50;;;-139.68;100.00
10940;BME280;5522;42.696;23.494;2023-03-14T04:09:26;53580.41;;;-139.68;100.00
10940;BME280;5522;42.696;23.494;2023-03-14T04:11:55;53584.44;;;-139.68;100.00
10940;BME280;5522;42.696;23.494;2023-03-14T04:14:22;53598.50;;;-139.68;100.00
10940;BME280;5522;42.696;23.494;2023-03-14T04:16:49;53612.56;;;-139.68;100.00
10940;BME280;5522;42.696;23.494;2023-03-14T04:19:16;53586.44;;;-139.68;100.00
10940;BME280;5522;42.696;23.494;2023-03-14T04:21:42;53590.47;;;-139.68;100.00
10940;BME280;5522;42.696;23.494;2023-03-14T04:24:12;53610.56;;;-139.68;100.00
10940;BME280;5522;42.696;23.494;2023-03-14T04:26:39;53550.25;;;-139.68;100.00
10940;BME280;5522;42.696;23.494;2023-03-14T04:29:07;53574.38;;;-139.68;100.00
10940;BME280;5522;42.696;23.494;2023-03-14T04:31:34;53566.34;;;-139.68;100.00
10940;BME280;5522;42.696;23.494;2023-03-14T04:34:01;53596.50;;;-139.68;100.00
10940;BME280;5522;42.696;23.494;2023-03-14T04:36:28;53574.38;;;-139.68;100.00
10940;BME280;5522;42.696;23.494;2023-03-14T04:38:55;53606.56;;;-139.68;100.00
10940;BME280;5522;42.696;23.494;2023-03-14T04:41:22;53574.38;;;-139.68;100.00
10940;BME280;5522;42.696;23.494;2023-03-14T04:43:48;53614.59;;;-139.68;100.00
10940;BME280;5522;42.696;23.494;2023-03-14T04:46:17;53618.63;;;-139.68;100.00
10940;BME280;5522;42.696;23.494;2023-03-14T04:48:43;53606.56;;;-139.68;100.00
10940;BME280;5522;42.696;23.494;2023-03-14T04:51:10;53608.56;;;-139.68;100.00
10940;BME280;5522;42.696;23.494;2023-03-14T04:53:38;53594.50;;;-139.68;100.00
10940;BME280;5522;42.696;23.494;2023-03-14T04:56:06;53602.53;;;-139.68;100.00
10940;BME280;5522;42.696;23.494;2023-03-14T04:58:33;53640.72;;;-139.68;100.00
10940;BME280;5522;42.696;23.494;2023-03-14T05:01:02;53602.53;;;-139.68;100.00
10940;BME280;5522;42.696;23.494;2023-03-14T05:03:31;53600.53;;;-139.68;100.00
10940;BME280;5522;42.696;23.494;2023-03-14T05:05:58;53634.69;;;-139.68;100.00
10940;BME280;5522;42.696;23.494;2023-03-14T05:08:26;53622.63;;;-139.68;97.60
10940;BME280;5522;42.696;23.494;2023-03-14T05:10:53;53628.66;;;-139.68;97.28
10940;BME280;5522;42.696;23.494;2023-03-14T05:13:20;53634.69;;;-139.68;97.05
10940;BME280;5522;42.696;23.494;2023-03-14T05:15:47;53626.66;;;-139.68;97.63
10940;BME280;5522;42.696;23.494;2023-03-14T05:18:14;53618.63;;;-139.68;97.52
10940;BME280;5522;42.696;23.494;2023-03-14T05:20:42;53652.78;;;-139.68;95.67
10940;BME280;5522;42.696;23.494;2023-03-14T05:23:09;53630.66;;;-139.68;78.00
10940;BME280;5522;42.696;23.494;2023-03-14T05:25:36;53666.84;;;-139.68;54.49
10940;BME280;5522;42.696;23.494;2023-03-14T05:28:03;53660.81;;;-139.68;45.28
10940;BME280;5522;42.696;23.494;2023-03-14T05:30:30;53672.88;;;-139.68;41.84
10940;BME280;5522;42.696;23.494;2023-03-14T05:32:59;53652.78;;;-139.68;40.53
10940;BME280;5522;42.696;23.494;2023-03-14T05:35:25;53666.84;;;-139.68;41.99
10940;BME280;5522;42.696;23.494;2023-03-14T05:37:54;53674.91;;;-139.68;41.63
10940;BME280;5522;42.696;23.494;2023-03-14T05:40:21;53674.91;;;-139.68;41.56
10940;BME280;5522;42.696;23.494;2023-03-14T05:42:47;53688.97;;;-139.68;40.75
10940;BME280;5522;42.696;23.494;2023-03-14T05:45:14;53678.91;;;-139.68;42.02
10940;BME280;5522;42.696;23.494;2023-03-14T05:47:41;53662.84;;;-139.68;41.38
10940;BME280;5522;42.696;23.494;2023-03-14T05:50:09;53666.84;;;-139.68;41.90
10940;BME280;5522;42.696;23.494;2023-03-14T05:52:36;53662.84;;;-139.68;40.00
10940;BME280;5522;42.696;23.494;2023-03-14T05:55:05;53652.78;;;-139.68;39.66
10940;BME280;5522;42.696;23.494;2023-03-14T05:57:32;53705.06;;;-139.68;39.08
10940;BME280;5522;42.696;23.494;2023-03-14T05:59:59;53664.84;;;-139.68;38.86
10940;BME280;5522;42.696;23.494;2023-03-14T06:02:26;53666.84;;;-139.68;37.23
10940;BME280;5522;42.696;23.494;2023-03-14T06:04:52;53670.88;;;-139.68;36.51
10940;BME280;5522;42.696;23.494;2023-03-14T06:07:19;53676.91;;;-139.68;35.72
10940;BME280;5522;42.696;23.494;2023-03-14T06:09:46;53693.00;;;-139.68;34.96
10940;BME280;5522;42.696;23.494;2023-03-14T06:12:14;53709.06;;;-139.68;34.58
10940;BME280;5522;42.696;23.494;2023-03-14T06:14:42;53680.94;;;-139.68;34.29
10940;BME280;5522;42.696;23.494;2023-03-14T06:17:09;53697.00;;;-139.68;34.82
10940;BME280;5522;42.696;23.494;2023-03-14T06:19:36;53674.91;;;-139.68;34.14
10940;BME280;5522;42.696;23.494;2023-03-14T06:22:03;53715.09;;;-139.68;33.67
10940;BME280;5522;42.696;23.494;2023-03-14T06:24:29;53682.94;;;-139.68;32.51
10940;BME280;5522;42.696;23.494;2023-03-14T06:26:56;53664.84;;;-139.68;32.86
10940;BME280;5522;42.696;23.494;2023-03-14T06:29:24;53666.84;;;-139.68;32.35
10940;BME280;5522;42.696;23.494;2023-03-14T06:31:51;53711.09;;;-139.68;31.33
10940;BME280;5522;42.696;23.494;2023-03-14T06:34:18;53753.28;;;-139.68;30.24
10940;BME280;5522;42.696;23.494;2023-03-14T06:36:45;53755.31;;;-139.68;29.43
10940;BME280;5522;42.696;23.494;2023-03-14T06:39:12;53763.34;;;-139.68;29.13
10940;BME280;5522;42.696;23.494;2023-03-14T06:41:39;53717.13;;;-139.68;28.99
10940;BME280;5522;42.696;23.494;2023-03-14T06:44:05;53759.31;;;-139.68;28.52
10940;BME280;5522;42.696;23.494;2023-03-14T06:46:34;53767.38;;;-139.68;28.69
10940;BME280;5522;42.696;23.494;2023-03-14T06:49:00;53773.41;;;-139.68;26.76
10940;BME280;5522;42.696;23.494;2023-03-14T06:51:28;53785.47;;;-139.68;27.61
10940;BME280;5522;42.696;23.494;2023-03-14T06:53:54;53799.53;;;-139.68;27.61
10940;BME280;5522;42.696;23.494;2023-03-14T06:56:21;53785.47;;;-139.68;27.01
10940;BME280;5522;42.696;23.494;2023-03-14T06:58:48;53795.50;;;-139.68;26.38
10940;BME280;5522;42.696;23.494;2023-03-14T07:01:20;53767.38;;;-139.68;25.92
10940;BME280;5522;42.696;23.494;2023-03-14T07:03:50;53765.34;;;-139.68;26.25
10940;BME280;5522;42.696;23.494;2023-03-14T07:06:17;53789.47;;;-139.68;26.21
10940;BME280;5522;42.696;23.494;2023-03-14T07:08:44;53799.53;;;-139.68;26.06
10940;BME280;5522;42.696;23.494;2023-03-14T07:11:11;53793.50;;;-139.68;26.78
10940;BME280;5522;42.696;23.494;2023-03-14T07:13:37;53781.44;;;-139.68;26.21
10940;BME280;5522;42.696;23.494;2023-03-14T07:16:05;53787.47;;;-139.68;26.14
10940;BME280;5522;42.696;23.494;2023-03-14T07:18:32;53771.38;;;-139.68;26.83
10940;BME280;5522;42.696;23.494;2023-03-14T07:21:00;53785.47;;;-139.68;27.78
10940;BME280;5522;42.696;23.494;2023-03-14T07:23:27;53771.38;;;-139.68;27.24
10940;BME280;5522;42.696;23.494;2023-03-14T07:25:55;53805.56;;;-139.68;27.04
10940;BME280;5522;42.696;23.494;2023-03-14T07:28:21;53815.63;;;-139.68;27.03
10940;BME280;5522;42.696;23.494;2023-03-14T07:30:49;53753.28;;;-139.68;27.39
10940;BME280;5522;42.696;23.494;2023-03-14T07:33:15;53751.28;;;-139.68;27.44
10940;BME280;5522;42.696;23.494;2023-03-14T07:35:42;53745.25;;;-139.68;28.52
10940;BME280;5522;42.696;23.494;2023-03-14T07:38:10;53767.38;;;-139.68;28.34
10940;BME280;5522;42.696;23.494;2023-03-14T07:40:37;53765.34;;;-139.68;27.52
10940;BME280;5522;42.696;23.494;2023-03-14T07:43:04;53767.38;;;-139.68;27.76
10940;BME280;5522;42.696;23.494;2023-03-14T07:45:31;53767.38;;;-139.68;28.03
10940;BME280;5522;42.696;23.494;2023-03-14T07:47:58;53763.34;;;-139.68;26.35
10940;BME280;5522;42.696;23.494;2023-03-14T07:50:25;53787.47;;;-139.68;25.88
10940;BME280;5522;42.696;23.494;2023-03-14T07:52:53;53767.38;;;-139.68;26.59
10940;BME280;5522;42.696;23.494;2023-03-14T07:55:21;53755.31;;;-139.68;25.39
10940;BME280;5522;42.696;23.494;2023-03-14T07:57:48;53793.50;;;-139.68;24.80
10940;BME280;5522;42.696;23.494;2023-03-14T08:00:15;53793.50;;;-139.68;25.99
10940;BME280;5522;42.696;23.494;2023-03-14T08:02:43;53781.44;;;-139.68;24.82
10940;BME280;5522;42.696;23.494;2023-03-14T08:05:09;53815.63;;;-139.68;26.12
10940;BME280;5522;42.696;23.494;2023-03-14T08:07:36;53767.38;;;-139.68;25.83
10940;BME280;5522;42.696;23.494;2023-03-14T08:10:04;53791.50;;;-139.68;24.33
10940;BME280;5522;42.696;23.494;2023-03-14T08:12:32;53779.44;;;-139.68;25.02
10940;BME280;5522;42.696;23.494;2023-03-14T08:14:59;53755.31;;;-139.68;23.60
10940;BME280;5522;42.696;23.494;2023-03-14T08:17:26;53827.69;;;-139.68;23.04
10940;BME280;5522;42.696;23.494;2023-03-14T08:19:53;53809.59;;;-139.68;23.81
10940;BME280;5522;42.696;23.494;2023-03-14T08:22:20;53807.56;;;-139.68;23.71
10940;BME280;5522;42.696;23.494;2023-03-14T08:24:47;53799.53;;;-139.68;24.33
10940;BME280;5522;42.696;23.494;2023-03-14T08:27:13;53779.44;;;-139.68;24.67
10940;BME280;5522;42.696;23.494;2023-03-14T08:29:42;53835.72;;;-139.68;24.61
10940;BME280;5522;42.696;23.494;2023-03-14T08:32:09;53791.50;;;-139.68;23.64
10940;BME280;5522;42.696;23.494;2023-03-14T08:34:36;53773.41;;;-139.68;23.49
10940;BME280;5522;42.696;23.494;2023-03-14T08:37:02;53811.59;;;-139.68;24.21
10940;BME280;5522;42.696;23.494;2023-03-14T08:39:29;53809.59;;;-139.68;23.32
10940;BME280;5522;42.696;23.494;2023-03-14T08:41:56;53783.44;;;-139.68;22.94
10940;BME280;5522;42.696;23.494;2023-03-14T08:44:23;53833.72;;;-139.68;23.82
10940;BME280;5522;42.696;23.494;2023-03-14T08:46:51;53791.50;;;-139.68;23.88
10940;BME280;5522;42.696;23.494;2023-03-14T08:49:18;53881.97;;;-139.68;22.58
10940;BME280;5522;42.696;23.494;2023-03-14T08:51:45;53815.63;;;-139.68;23.72
10940;BME280;5522;42.696;23.494;2023-03-14T08:54:12;53839.75;;;-139.68;23.40
10940;BME280;5522;42.696;23.494;2023-03-14T08:56:39;53795.50;;;-139.68;23.10
10940;BME280;5522;42.696;23.494;2023-03-14T08:59:05;53807.56;;;-139.68;22.05
10940;BME280;5522;42.696;23.494;2023-03-14T09:01:33;53805.56;;;-139.68;21.87
10940;BME280;5522;42.696;23.494;2023-03-14T09:04:01;53823.66;;;-139.68;22.65
10940;BME280;5522;42.696;23.494;2023-03-14T09:06:28;53797.53;;;-139.68;22.08
10940;BME280;5522;42.696;23.494;2023-03-14T09:08:55;53847.78;;;-139.68;22.38
10940;BME280;5522;42.696;23.494;2023-03-14T09:11:22;53819.63;;;-139.68;23.35
10940;BME280;5522;42.696;23.494;2023-03-14T09:13:49;53823.66;;;-139.68;23.49
10940;BME280;5522;42.696;23.494;2023-03-14T09:16:16;53803.56;;;-139.68;22.10
10940;BME280;5522;42.696;23.494;2023-03-14T09:18:42;53819.63;;;-139.68;22.54
10940;BME280;5522;42.696;23.494;2023-03-14T09:21:10;53817.63;;;-139.68;22.61
10940;BME280;5522;42.696;23.494;2023-03-14T09:23:38;53839.75;;;-139.68;22.69
10940;BME280;5522;42.696;23.494;2023-03-14T09:26:06;53813.59;;;-139.68;22.58
10940;BME280;5522;42.696;23.494;2023-03-14T09:28:32;53795.50;;;-139.68;23.01
10940;BME280;5522;42.696;23.494;2023-03-14T09:31:05;53813.59;;;-139.68;24.24
10940;BME280;5522;42.696;23.494;2023-03-14T09:33:33;53823.66;;;-139.68;23.32
10940;BME280;5522;42.696;23.494;2023-03-14T09:36:00;53821.66;;;-139.68;22.71
10940;BME280;5522;42.696;23.494;2023-03-14T09:38:28;53815.63;;;-139.68;22.66
10940;BME280;5522;42.696;23.494;2023-03-14T09:40:57;53795.50;;;-139.68;22.83
10940;BME280;5522;42.696;23.494;2023-03-14T09:43:26;53863.88;;;-139.68;22.97
10940;BME280;5522;42.696;23.494;2023-03-14T09:45:56;53849.78;;;-139.68;22.73
10940;BME280;5522;42.696;23.494;2023-03-14T09:48:27;53811.59;;;-139.68;23.33
10940;BME280;5522;42.696;23.494;2023-03-14T09:50:58;53829.69;;;-139.68;23.80
10940;BME280;5522;42.696;23.494;2023-03-14T09:53:28;53815.63;;;-139.68;23.75
10940;BME280;5522;42.696;23.494;2023-03-14T09:56:02;53827.69;;;-139.68;24.11
10940;BME280;5522;42.696;23.494;2023-03-14T09:58:30;53807.56;;;-139.68;24.68
10940;BME280;5522;42.696;23.494;2023-03-14T10:00:58;53841.75;;;-139.68;24.11
10940;BME280;5522;42.696;23.494;2023-03-14T10:03:32;53807.56;;;-139.68;23.74
10940;BME280;5522;42.696;23.494;2023-03-14T10:06:00;53843.75;;;-139.68;23.99
10940;BME280;5522;42.696;23.494;2023-03-14T10:08:28;53839.75;;;-139.68;22.89
10940;BME280;5522;42.696;23.494;2023-03-14T10:10:55;53827.69;;;-139.68;23.79
10940;BME280;5522;42.696;23.494;2023-03-14T10:13:23;53815.63;;;-139.68;23.72
10940;BME280;5522;42.696;23.494;2023-03-14T10:15:52;53823.66;;;-139.68;24.19
10940;BME280;5522;42.696;23.494;2023-03-14T10:18:21;53833.72;;;-139.68;24.22
10940;BME280;5522;42.696;23.494;2023-03-14T10:20:57;53839.75;;;-139.68;23.42
10940;BME280;5522;42.696;23.494;2023-03-14T10:23:31;53809.59;;;-139.68;23.30
10940;BME280;5522;42.696;23.494;2023-03-14T10:26:05;53851.81;;;-139.68;23.66
10940;BME280;5522;42.696;23.494;2023-03-14T10:28:33;53831.69;;;-139.68;23.31
10940;BME280;5522;42.696;23.494;2023-03-14T10:31:00;53827.69;;;-139.68;23.73
10940;BME280;5522;42.696;23.494;2023-03-14T10:33:29;53883.97;;;-139.68;23.37
10940;BME280;5522;42.696;23.494;2023-03-14T10:35:59;53831.69;;;-139.68;23.72
10940;BME280;5522;42.696;23.494;2023-03-14T10:38:27;53845.78;;;-139.68;22.77
10940;BME280;5522;42.696;23.494;2023-03-14T10:40:56;53847.78;;;-139.68;23.27
10940;BME280;5522;42.696;23.494;2023-03-14T10:43:25;53831.69;;;-139.68;22.88
10940;BME280;5522;42.696;23.494;2023-03-14T10:45:55;53833.72;;;-139.68;23.00
10940;BME280;5522;42.696;23.494;2023-03-14T10:48:29;53839.75;;;-139.68;23.67
10940;BME280;5522;42.696;23.494;2023-03-14T10:51:03;53859.84;;;-139.68;23.69
10940;BME280;5522;42.696;23.494;2023-03-14T10:53:34;53839.75;;;-139.68;23.69
10940;BME280;5522;42.696;23.494;2023-03-14T10:56:09;53807.56;;;-139.68;23.98
10940;BME280;5522;42.696;23.494;2023-03-14T10:58:40;53829.69;;;-139.68;24.25
10940;BME280;5522;42.696;23.494;2023-03-14T11:01:22;53811.59;;;-139.68;25.67
10940;BME280;5522;42.696;23.494;2023-03-14T11:03:56;53837.72;;;-139.68;26.97
10940;BME280;5522;42.696;23.494;2023-03-14T11:06:29;53807.56;;;-139.68;26.92
10940;BME280;5522;42.696;23.494;2023-03-14T11:09:07;53823.66;;;-139.68;27.13
10940;BME280;5522;42.696;23.494;2023-03-14T11:11:39;53799.53;;;-139.68;27.19
10940;BME280;5522;42.696;23.494;2023-03-14T11:14:17;53807.56;;;-139.68;27.98
10940;BME280;5522;42.696;23.494;2023-03-14T11:16:53;53819.63;;;-139.68;26.29
10940;BME280;5522;42.696;23.494;2023-03-14T11:19:51;53803.56;;;-139.68;28.18
10940;BME280;5522;42.696;23.494;2023-03-14T11:22:28;53829.69;;;-139.68;27.37
10940;BME280;5522;42.696;23.494;2023-03-14T11:25:17;53821.66;;;-139.68;27.46
10940;BME280;5522;42.696;23.494;2023-03-14T11:27:50;53823.66;;;-139.68;27.13
10940;BME280;5522;42.696;23.494;2023-03-14T11:30:26;53801.53;;;-139.68;27.64
10940;BME280;5522;42.696;23.494;2023-03-14T11:33:02;53809.59;;;-139.68;28.49
10940;BME280;5522;42.696;23.494;2023-03-14T11:35:33;53815.63;;;-139.68;27.74
10940;BME280;5522;42.696;23.494;2023-03-14T11:38:12;53815.63;;;-139.68;27.63
10940;BME280;5522;42.696;23.494;2023-03-14T11:40:40;53835.72;;;-139.68;28.56
10940;BME280;5522;42.696;23.494;2023-03-14T11:43:13;53815.63;;;-139.68;27.52
10940;BME280;5522;42.696;23.494;2023-03-14T11:45:42;53823.66;;;-139.68;27.19
10940;BME280;5522;42.696;23.494;2023-03-14T11:48:17;53817.63;;;-139.68;27.53
10940;BME280;5522;42.696;23.494;2023-03-14T11:50:49;53819.63;;;-139.68;26.96
10940;BME280;5522;42.696;23.494;2023-03-14T11:53:20;53807.56;;;-139.68;28.08
10940;BME280;5522;42.696;23.494;2023-03-14T11:55:48;53799.53;;;-139.68;27.10
10940;BME280;5522;42.696;23.494;2023-03-14T11:58:22;53787.47;;;-139.68;27.24
10940;BME280;5522;42.696;23.494;2023-03-14T12:00:51;53833.72;;;-139.68;26.93
10940;BME280;5522;42.696;23.494;2023-03-14T12:03:24;53831.69;;;-139.68;27.16
10940;BME280;5522;42.696;23.494;2023-03-14T12:06:10;53787.47;;;-139.68;27.66
10940;BME280;5522;42.696;23.494;2023-03-14T12:08:46;53803.56;;;-139.68;27.19
10940;BME280;5522;42.696;23.494;2023-03-14T12:11:19;53801.53;;;-139.68;28.01
10940;BME280;5522;42.696;23.494;2023-03-14T12:13:50;53819.63;;;-139.68;27.20
10940;BME280;5522;42.696;23.494;2023-03-14T12:16:32;53811.59;;;-139.68;27.32
10940;BME280;5522;42.696;23.494;2023-03-14T12:21:58;53789.47;;;-139.68;27.78
10940;BME280;5522;42.696;23.494;2023-03-14T12:24:29;53831.69;;;-139.68;26.74
10940;BME280;5522;42.696;23.494;2023-03-14T12:26:58;53831.69;;;-139.68;26.41
10940;BME280;5522;42.696;23.494;2023-03-14T12:29:27;53789.47;;;-139.68;26.48
10940;BME280;5522;42.696;23.494;2023-03-14T12:32:21;53803.56;;;-139.68;26.47
10940;BME280;5522;42.696;23.494;2023-03-14T12:34:49;53803.56;;;-139.68;27.25
10940;BME280;5522;42.696;23.494;2023-03-14T12:37:36;53831.69;;;-139.68;26.65
10940;BME280;5522;42.696;23.494;2023-03-14T12:40:17;53807.56;;;-139.68;27.11
10940;BME280;5522;42.696;23.494;2023-03-14T12:42:54;53791.50;;;-139.68;27.00
10940;BME280;5522;42.696;23.494;2023-03-14T12:45:28;53845.78;;;-139.68;26.86
10940;BME280;5522;42.696;23.494;2023-03-14T12:48:09;53813.59;;;-139.68;27.71
10940;BME280;5522;42.696;23.494;2023-03-14T12:50:42;53799.53;;;-139.68;27.17
10940;BME280;5522;42.696;23.494;2023-03-14T12:53:42;53843.75;;;-139.68;26.98
10940;BME280;5522;42.696;23.494;2023-03-14T12:56:21;53815.63;;;-139.68;27.05
10940;BME280;5522;42.696;23.494;2023-03-14T12:58:58;53805.56;;;-139.68;27.00
10940;BME280;5522;42.696;23.494;2023-03-14T13:01:29;53775.41;;;-139.68;27.59